createdAt,value
2023-01-03T00:01:52.454Z,99.04
2023-01-03T00:03:56.138Z,99.14
2023-01-03T00:05:57.668Z,98.94
2023-01-03T00:07:59.115Z,99.29
2023-01-03T00:10:08.315Z,99.17
2023-01-03T00:12:30.425Z,99.36
2023-01-03T00:14:35.545Z,99.31
2023-01-03T00:16:37.145Z,99.60
2023-01-03T00:18:38.617Z,99.90
2023-01-03T00:20:40.077Z,99.71
2023-01-03T00:22:41.591Z,99.61
2023-01-03T00:24:44.485Z,99.98
2023-01-03T00:26:46.495Z,99.54
2023-01-03T00:28:47.933Z,99.70
2023-01-03T00:30:49.470Z,99.45
2023-01-03T00:32:50.980Z,99.89
2023-01-03T00:34:52.550Z,100.00
2023-01-03T00:36:54.573Z,98.90
2023-01-03T00:38:56.657Z,99.58
2023-01-03T00:41:09.992Z,99.27
2023-01-03T00:43:29.421Z,100.00
2023-01-03T00:45:35.055Z,99.64
2023-01-03T00:47:37.037Z,99.51
2023-01-03T00:49:38.493Z,99.60
2023-01-03T00:51:41.640Z,99.26
2023-01-03T00:53:45.651Z,100.00
2023-01-03T00:55:47.460Z,99.32
2023-01-03T00:57:48.910Z,99.62
2023-01-03T00:59:50.470Z,100.00
2023-01-03T01:01:54.214Z,100.00
2023-01-03T01:04:03.087Z,99.94
2023-01-03T01:06:14.988Z,99.46
2023-01-03T01:08:16.476Z,100.00
2023-01-03T01:10:19.616Z,99.73
2023-01-03T01:12:21.091Z,99.69
2023-01-03T01:14:24.673Z,100.00
2023-01-03T01:16:30.097Z,100.00
2023-01-03T01:18:32.022Z,100.00
2023-01-03T01:20:33.465Z,100.00
2023-01-03T01:22:35.250Z,100.00
2023-01-03T01:24:36.792Z,100.00
2023-01-03T01:26:38.707Z,100.00
2023-01-03T01:28:40.443Z,100.00
2023-01-03T01:30:42.100Z,100.00
2023-01-03T01:32:43.620Z,100.00
2023-01-03T01:34:45.109Z,100.00
2023-01-03T01:36:47.329Z,100.00
2023-01-03T01:38:59.872Z,100.00
2023-01-03T01:41:01.842Z,100.00
2023-01-03T01:43:39.278Z,100.00
2023-01-03T01:45:40.855Z,100.00
2023-01-03T01:47:53.513Z,100.00
2023-01-03T01:50:01.312Z,100.00
2023-01-03T01:52:03.469Z,100.00
2023-01-03T01:54:06.939Z,100.00
2023-01-03T01:56:18.960Z,100.00
2023-01-03T01:58:23.009Z,100.00
2023-01-03T02:00:24.474Z,100.00
2023-01-03T02:02:27.416Z,100.00
2023-01-03T02:04:33.865Z,100.00
2023-01-03T02:06:35.606Z,100.00
2023-01-03T02:08:37.402Z,100.00
2023-01-03T02:10:44.783Z,100.00
2023-01-03T02:13:18.942Z,100.00
2023-01-03T02:15:32.771Z,100.00
2023-01-03T02:17:46.173Z,100.00
2023-01-03T02:19:53.588Z,100.00
2023-01-03T02:22:15.413Z,100.00
2023-01-03T02:24:54.599Z,100.00
2023-01-03T02:27:28.229Z,100.00
2023-01-03T02:29:54.349Z,100.00
2023-01-03T02:32:17.763Z,100.00
2023-01-03T02:34:34.563Z,100.00
2023-01-03T02:36:56.931Z,100.00
2023-01-03T02:38:58.347Z,100.00
2023-01-03T02:41:38.243Z,100.00
2023-01-03T02:44:22.735Z,100.00
2023-01-03T02:46:54.477Z,100.00
2023-01-03T02:49:02.089Z,100.00
2023-01-03T02:51:08.690Z,100.00
2023-01-03T02:53:15.175Z,100.00
2023-01-03T02:55:21.747Z,99.99
2023-01-03T02:57:39.371Z,100.00
2023-01-03T02:59:49.453Z,100.00
2023-01-03T03:01:52.585Z,100.00
2023-01-03T03:03:56.874Z,100.00
2023-01-03T03:06:10.463Z,100.00
2023-01-03T03:08:11.975Z,100.00
2023-01-03T03:10:32.281Z,100.00
2023-01-03T03:12:55.753Z,100.00
2023-01-03T03:14:58.602Z,100.00
2023-01-03T03:17:05.691Z,100.00
2023-01-03T03:19:39.581Z,100.00
2023-01-03T03:21:59.969Z,100.00
2023-01-03T03:24:30.468Z,100.00
2023-01-03T03:26:39.001Z,100.00
2023-01-03T03:28:44.353Z,100.00
2023-01-03T03:30:50.381Z,100.00
2023-01-03T03:32:55.963Z,100.00
2023-01-03T03:34:59.557Z,100.00
2023-01-03T03:37:16.807Z,100.00
2023-01-03T03:39:37.349Z,100.00
2023-01-03T03:42:12.899Z,100.00
2023-01-03T03:44:44.650Z,100.00
2023-01-03T03:46:55.105Z,100.00
2023-01-03T03:49:24.139Z,100.00
2023-01-03T03:51:31.260Z,100.00
2023-01-03T03:53:35.547Z,100.00
2023-01-03T03:55:41.637Z,100.00
2023-01-03T03:57:55.771Z,100.00
2023-01-03T04:00:05.293Z,100.00
2023-01-03T04:02:08.643Z,100.00
2023-01-03T04:04:15.513Z,100.00
2023-01-03T04:06:28.239Z,100.00
2023-01-03T04:08:29.872Z,100.00
2023-01-03T04:10:37.202Z,100.00
2023-01-03T04:12:39.194Z,100.00
2023-01-03T04:14:40.722Z,100.00
2023-01-03T04:16:42.296Z,100.00
2023-01-03T04:18:43.811Z,100.00
2023-01-03T04:20:45.274Z,100.00
2023-01-03T04:22:46.812Z,100.00
2023-01-03T04:24:48.291Z,100.00
2023-01-03T04:26:49.847Z,100.00
2023-01-03T04:28:51.312Z,99.75
2023-01-03T04:30:52.812Z,98.34
2023-01-03T04:32:54.270Z,98.23
2023-01-03T04:34:55.780Z,98.05
2023-01-03T04:36:57.318Z,97.23
2023-01-03T04:38:58.797Z,96.99
2023-01-03T04:41:08.296Z,96.73
2023-01-03T04:43:49.285Z,96.43
2023-01-03T04:45:51.212Z,96.40
2023-01-03T04:47:53.377Z,96.27
2023-01-03T04:49:54.820Z,96.46
2023-01-03T04:51:56.259Z,96.35
2023-01-03T04:53:57.858Z,96.05
2023-01-03T04:55:59.395Z,96.14
2023-01-03T04:58:01.104Z,95.76
2023-01-03T05:00:02.791Z,95.19
2023-01-03T05:02:04.724Z,95.23
2023-01-03T05:04:06.387Z,94.80
2023-01-03T05:06:09.219Z,94.84
2023-01-03T05:08:12.321Z,94.55
2023-01-03T05:10:13.911Z,94.79
2023-01-03T05:12:15.433Z,94.71
2023-01-03T05:14:16.926Z,95.12
2023-01-03T05:16:18.447Z,94.71
2023-01-03T05:18:20.003Z,95.17
2023-01-03T05:20:41.127Z,95.51
2023-01-03T05:23:01.080Z,95.28
2023-01-03T05:25:21.055Z,95.72
2023-01-03T05:27:22.747Z,95.20
2023-01-03T05:29:24.284Z,95.21
2023-01-03T05:31:25.807Z,94.91
2023-01-03T05:33:28.192Z,94.76
2023-01-03T05:35:29.648Z,95.08
2023-01-03T05:37:31.142Z,94.77
2023-01-03T05:39:32.589Z,94.97
2023-01-03T05:41:52.373Z,95.07
2023-01-03T05:43:53.820Z,95.49
2023-01-03T05:45:55.319Z,95.72
2023-01-03T05:47:57.509Z,96.11
2023-01-03T05:49:58.957Z,96.49
2023-01-03T05:52:00.441Z,96.89
2023-01-03T05:54:01.978Z,97.48
2023-01-03T05:56:06.988Z,98.00
2023-01-03T05:58:09.978Z,98.45
2023-01-03T06:00:12.235Z,98.76
2023-01-03T06:02:13.806Z,98.93
2023-01-03T06:04:15.440Z,99.37
2023-01-03T06:06:17.140Z,99.58
2023-01-03T06:08:18.662Z,99.84
2023-01-03T06:10:20.164Z,99.82
2023-01-03T06:12:21.714Z,99.96
2023-01-03T06:14:23.187Z,100.00
2023-01-03T06:16:43.872Z,100.00
2023-01-03T06:18:45.477Z,100.00
2023-01-03T06:20:46.968Z,100.00
2023-01-03T06:22:48.561Z,100.00
2023-01-03T06:24:50.077Z,100.00
2023-01-03T06:26:51.535Z,100.00
2023-01-03T06:28:53.291Z,100.00
2023-01-03T06:30:55.473Z,100.00
2023-01-03T06:32:56.975Z,100.00
2023-01-03T06:34:58.423Z,99.93
2023-01-03T06:36:59.889Z,100.00
2023-01-03T06:39:01.472Z,100.00
2023-01-03T06:41:03.783Z,100.00
2023-01-03T06:43:05.341Z,100.00
2023-01-03T06:45:25.863Z,100.00
2023-01-03T06:47:45.972Z,100.00
2023-01-03T06:50:05.662Z,100.00
2023-01-03T06:52:32.765Z,100.00
2023-01-03T06:54:36.685Z,100.00
2023-01-03T06:56:38.136Z,100.00
2023-01-03T06:58:39.618Z,100.00
2023-01-03T07:00:44.217Z,100.00
2023-01-03T07:02:45.751Z,100.00
2023-01-03T07:04:47.319Z,100.00
2023-01-03T07:06:48.910Z,100.00
2023-01-03T07:08:51.436Z,100.00
2023-01-03T07:10:54.521Z,100.00
2023-01-03T07:13:14.594Z,100.00
2023-01-03T07:15:16.036Z,100.00
2023-01-03T07:17:17.999Z,100.00
2023-01-03T07:19:20.081Z,100.00
2023-01-03T07:21:25.968Z,100.00
2023-01-03T07:23:27.453Z,100.00
2023-01-03T07:25:28.950Z,100.00
2023-01-03T07:27:30.401Z,100.00
2023-01-03T07:29:31.904Z,100.00
2023-01-03T07:31:34.628Z,100.00
2023-01-03T07:33:39.083Z,100.00
2023-01-03T07:35:40.729Z,100.00
2023-01-03T07:37:42.218Z,100.00
2023-01-03T07:39:43.697Z,100.00
2023-01-03T07:42:03.653Z,100.00
2023-01-03T07:44:05.121Z,100.00
2023-01-03T07:46:24.204Z,100.00
2023-01-03T07:48:25.765Z,100.00
2023-01-03T07:50:27.234Z,100.00
2023-01-03T07:52:28.726Z,100.00
2023-01-03T07:54:30.232Z,100.00
2023-01-03T07:56:31.752Z,100.00
2023-01-03T07:58:33.724Z,100.00
2023-01-03T08:00:35.216Z,100.00
2023-01-03T08:02:36.743Z,100.00
2023-01-03T08:04:38.345Z,100.00
2023-01-03T08:06:40.330Z,100.00
2023-01-03T08:08:42.625Z,100.00
2023-01-03T08:11:02.584Z,100.00
2023-01-03T08:13:19.914Z,100.00
2023-01-03T08:15:21.921Z,100.00
2023-01-03T08:17:23.356Z,100.00
2023-01-03T08:19:25.325Z,100.00
2023-01-03T08:21:26.768Z,100.00
2023-01-03T08:23:30.064Z,100.00
2023-01-03T08:25:31.599Z,100.00
2023-01-03T08:27:33.060Z,100.00
2023-01-03T08:29:34.549Z,100.00
2023-01-03T08:31:40.477Z,100.00
2023-01-03T08:33:48.988Z,100.00
2023-01-03T08:35:58.253Z,100.00
2023-01-03T08:38:04.374Z,100.00
2023-01-03T08:40:06.553Z,100.00
2023-01-03T08:42:09.766Z,100.00
2023-01-03T08:44:11.960Z,100.00
2023-01-03T08:46:16.221Z,100.00
2023-01-03T08:48:20.799Z,100.00
2023-01-03T08:50:22.326Z,100.00
2023-01-03T08:52:23.964Z,100.00
2023-01-03T08:54:25.495Z,100.00
2023-01-03T08:56:27.056Z,100.00
2023-01-03T08:58:28.558Z,100.00
2023-01-03T09:00:30.063Z,100.00
2023-01-03T09:02:34.528Z,100.00
2023-01-03T09:04:36.489Z,100.00
2023-01-03T09:06:38.214Z,100.00
2023-01-03T09:08:39.708Z,100.00
2023-01-03T09:10:47.175Z,100.00
2023-01-03T09:12:48.883Z,100.00
2023-01-03T09:14:50.440Z,100.00
2023-01-03T09:16:51.978Z,100.00
2023-01-03T09:18:53.504Z,100.00
2023-01-03T09:20:55.022Z,100.00
2023-01-03T09:22:56.481Z,100.00
2023-01-03T09:24:58.008Z,100.00
2023-01-03T09:27:00.173Z,100.00
2023-01-03T09:29:01.968Z,100.00
2023-01-03T09:31:04.050Z,100.00
2023-01-03T09:33:05.834Z,100.00
2023-01-03T09:35:08.293Z,100.00
2023-01-03T09:37:09.927Z,100.00
2023-01-03T09:39:11.448Z,100.00
2023-01-03T09:41:21.914Z,100.00
2023-01-03T09:43:29.273Z,100.00
2023-01-03T09:45:34.030Z,100.00
2023-01-03T09:47:38.388Z,100.00
2023-01-03T09:49:57.691Z,100.00
2023-01-03T09:52:20.395Z,100.00
2023-01-03T09:54:54.182Z,100.00
2023-01-03T09:57:14.504Z,100.00
2023-01-03T09:59:37.000Z,100.00
2023-01-03T10:02:25.103Z,100.00
2023-01-03T10:04:48.637Z,100.00
2023-01-03T10:07:18.399Z,100.00
2023-01-03T10:09:32.693Z,100.00
2023-01-03T10:12:04.923Z,100.00
2023-01-03T10:14:40.363Z,100.00
2023-01-03T10:16:55.307Z,100.00
2023-01-03T10:19:11.943Z,100.00
2023-01-03T10:21:36.381Z,100.00
2023-01-03T10:23:37.902Z,100.00
2023-01-03T10:25:41.680Z,100.00
2023-01-03T10:27:51.355Z,100.00
2023-01-03T10:29:59.845Z,100.00
2023-01-03T10:32:34.780Z,100.00
2023-01-03T10:34:38.625Z,100.00
2023-01-03T10:36:40.144Z,100.00
2023-01-03T10:38:49.364Z,100.00
2023-01-03T10:40:55.637Z,100.00
2023-01-03T10:42:57.129Z,100.00
2023-01-03T10:45:10.437Z,100.00
2023-01-03T10:47:17.199Z,100.00
2023-01-03T10:49:30.131Z,100.00
2023-01-03T10:51:43.180Z,100.00
2023-01-03T10:53:44.844Z,100.00
2023-01-03T10:55:52.321Z,100.00
2023-01-03T10:57:56.523Z,100.00
2023-01-03T10:59:58.022Z,100.00
2023-01-03T11:02:16.679Z,100.00
2023-01-03T11:04:19.947Z,100.00
2023-01-03T11:06:21.600Z,100.00
2023-01-03T11:08:45.363Z,100.00
2023-01-03T11:11:00.052Z,100.00
2023-01-03T11:13:01.563Z,100.00
2023-01-03T11:15:37.899Z,100.00
2023-01-03T11:17:52.810Z,100.00
2023-01-03T11:19:55.387Z,100.00
2023-01-03T11:22:06.887Z,100.00
2023-01-03T11:24:31.485Z,96.66
2023-01-03T11:26:48.953Z,89.65
2023-01-03T11:29:08.176Z,87.31
2023-01-03T11:31:26.582Z,87.26
2023-01-03T11:33:37.162Z,88.14
2023-01-03T11:35:59.145Z,89.35
2023-01-03T11:38:20.176Z,90.37
2023-01-03T11:40:21.596Z,90.68
2023-01-03T11:42:45.014Z,91.02
2023-01-03T11:45:20.037Z,91.62
2023-01-03T11:47:30.591Z,91.72
2023-01-03T11:50:14.515Z,92.32
2023-01-03T11:52:27.911Z,92.76
2023-01-03T11:54:53.156Z,92.31
2023-01-03T11:56:58.538Z,91.82
2023-01-03T11:59:27.931Z,92.13
2023-01-03T12:02:07.253Z,92.51
2023-01-03T12:04:26.548Z,92.38
2023-01-03T12:07:14.220Z,92.34
2023-01-03T12:09:22.321Z,92.93
2023-01-03T12:11:36.630Z,93.55
2023-01-03T12:13:53.369Z,93.68
2023-01-03T12:16:20.843Z,94.25
2023-01-03T12:18:28.708Z,94.29
2023-01-03T12:20:38.740Z,94.54
2023-01-03T12:22:47.942Z,94.47
2023-01-03T12:25:02.557Z,94.76
2023-01-03T12:27:23.648Z,95.07
2023-01-03T12:29:29.065Z,94.68
2023-01-03T12:31:47.519Z,94.19
2023-01-03T12:33:54.443Z,94.03
2023-01-03T12:36:33.179Z,93.82
2023-01-03T12:38:45.000Z,94.03
2023-01-03T12:40:46.392Z,93.91
2023-01-03T12:43:12.008Z,93.44
2023-01-03T12:45:29.658Z,94.02
2023-01-03T12:47:49.882Z,93.61
2023-01-03T12:50:01.718Z,94.03
2023-01-03T12:52:03.244Z,93.79
2023-01-03T12:54:22.964Z,93.85
2023-01-03T12:56:30.461Z,93.80
2023-01-03T12:58:39.820Z,94.03
2023-01-03T13:00:58.609Z,94.23
2023-01-03T13:03:41.482Z,94.26
2023-01-03T13:05:50.918Z,93.96
2023-01-03T13:08:32.905Z,94.03
2023-01-03T13:10:38.391Z,94.44
2023-01-03T13:12:43.604Z,94.28
2023-01-03T13:15:07.658Z,94.78
2023-01-03T13:17:18.102Z,94.29
2023-01-03T13:19:22.605Z,94.80
2023-01-03T13:21:49.891Z,94.62
2023-01-03T13:23:59.312Z,94.93
2023-01-03T13:26:06.886Z,95.00
2023-01-03T13:28:29.862Z,94.48
2023-01-03T13:30:34.922Z,94.68
2023-01-03T13:33:11.978Z,95.02
2023-01-03T13:35:16.148Z,95.11
2023-01-03T13:37:18.748Z,95.00
2023-01-03T13:39:40.204Z,95.01
2023-01-03T13:41:41.772Z,95.37
2023-01-03T13:43:47.206Z,95.17
2023-01-03T13:45:50.416Z,95.18
2023-01-03T13:47:54.284Z,95.43
2023-01-03T13:49:55.810Z,95.09
2023-01-03T13:51:58.685Z,95.48
2023-01-03T13:54:01.744Z,95.54
2023-01-03T13:56:15.093Z,95.58
2023-01-03T13:58:40.250Z,95.06
2023-01-03T14:00:41.927Z,95.58
2023-01-03T14:03:05.673Z,95.56
2023-01-03T14:05:30.373Z,95.83
2023-01-03T14:07:37.578Z,95.40
2023-01-03T14:10:01.809Z,95.58
2023-01-03T14:12:48.337Z,95.38
2023-01-03T14:14:55.448Z,95.57
2023-01-03T14:16:58.684Z,95.82
2023-01-03T14:19:22.867Z,95.87
2023-01-03T14:21:31.151Z,95.82
2023-01-03T14:23:59.746Z,95.76
2023-01-03T14:26:04.674Z,95.83
2023-01-03T14:28:20.703Z,95.89
2023-01-03T14:30:28.326Z,95.64
2023-01-03T14:32:35.960Z,95.70
2023-01-03T14:34:41.206Z,96.27
2023-01-03T14:36:47.187Z,95.94
2023-01-03T14:38:54.721Z,96.29
2023-01-03T14:41:00.134Z,96.15
2023-01-03T14:43:05.107Z,95.89
2023-01-03T14:45:08.756Z,96.14
2023-01-03T14:47:17.561Z,96.08
2023-01-03T14:49:45.013Z,96.28
2023-01-03T14:51:46.891Z,96.24
2023-01-03T14:53:49.984Z,96.44
2023-01-03T14:55:53.857Z,96.23
2023-01-03T14:57:56.904Z,96.46
2023-01-03T15:00:00.793Z,96.75
2023-01-03T15:02:02.771Z,96.56
2023-01-03T15:04:05.208Z,96.21
2023-01-03T15:06:25.043Z,96.31
2023-01-03T15:08:31.521Z,96.88
2023-01-03T15:10:43.575Z,96.72
2023-01-03T15:12:57.564Z,97.19
2023-01-03T15:15:19.746Z,96.85
2023-01-03T15:17:26.303Z,97.11
2023-01-03T15:19:30.355Z,96.98
2023-01-03T15:21:32.088Z,96.76
2023-01-03T15:23:37.063Z,97.16
2023-01-03T15:25:41.492Z,96.98
2023-01-03T15:27:45.315Z,97.16
2023-01-03T15:29:46.828Z,97.00
2023-01-03T15:31:58.504Z,97.27
2023-01-03T15:34:19.572Z,96.90
2023-01-03T15:36:26.406Z,96.96
2023-01-03T15:38:37.101Z,97.35
2023-01-03T15:40:39.963Z,97.42
2023-01-03T15:43:02.614Z,97.73
2023-01-03T15:45:21.300Z,97.58
2023-01-03T15:47:25.148Z,97.81
2023-01-03T15:49:28.473Z,97.68
2023-01-03T15:51:29.957Z,97.82
2023-01-03T15:53:43.246Z,97.73
2023-01-03T15:55:45.922Z,97.91
2023-01-03T15:57:53.758Z,97.94
2023-01-03T15:59:57.699Z,98.57
2023-01-03T16:01:59.507Z,98.82
2023-01-03T16:04:01.088Z,98.88
2023-01-03T16:06:02.988Z,99.20
2023-01-03T16:08:15.654Z,98.82
2023-01-03T16:10:17.338Z,99.01
2023-01-03T16:12:43.913Z,99.27
2023-01-03T16:14:49.309Z,99.35
2023-01-03T16:16:53.408Z,99.12
2023-01-03T16:18:55.698Z,99.20
2023-01-03T16:20:57.264Z,99.46
2023-01-03T16:23:01.784Z,99.62
2023-01-03T16:25:05.541Z,99.73
2023-01-03T16:27:16.822Z,99.81
2023-01-03T16:29:18.505Z,99.72
2023-01-03T16:31:31.934Z,99.72
2023-01-03T16:33:35.761Z,99.79
2023-01-03T16:35:37.279Z,99.57
2023-01-03T16:37:38.764Z,99.64
2023-01-03T16:39:47.399Z,99.40
2023-01-03T16:42:10.276Z,99.73
2023-01-03T16:44:11.807Z,100.00
2023-01-03T16:46:15.929Z,99.58
2023-01-03T16:48:20.921Z,99.92
2023-01-03T16:50:22.896Z,100.00
2023-01-03T16:52:27.962Z,99.83
2023-01-03T16:54:30.258Z,99.95
2023-01-03T16:56:31.716Z,99.72
2023-01-03T16:58:33.354Z,99.10
2023-01-03T17:00:35.553Z,99.50
2023-01-03T17:02:37.148Z,99.51
2023-01-03T17:04:38.860Z,99.71
2023-01-03T17:06:41.156Z,99.85
2023-01-03T17:08:42.942Z,99.82
2023-01-03T17:10:47.044Z,99.98
2023-01-03T17:12:48.616Z,100.00
2023-01-03T17:14:51.121Z,99.90
2023-01-03T17:16:52.642Z,100.00
2023-01-03T17:18:55.971Z,100.00
2023-01-03T17:21:06.841Z,100.00
2023-01-03T17:23:09.135Z,100.00
2023-01-03T17:25:11.578Z,100.00
2023-01-03T17:27:25.053Z,100.00
2023-01-03T17:29:31.425Z,100.00
2023-01-03T17:31:33.169Z,100.00
2023-01-03T17:33:34.695Z,100.00
2023-01-03T17:35:38.478Z,100.00
2023-01-03T17:38:05.669Z,100.00
2023-01-03T17:40:01.890Z,100.00
2023-01-03T17:42:18.988Z,100.00
2023-01-03T17:44:20.481Z,100.00
2023-01-03T17:46:43.244Z,100.00
2023-01-03T17:49:03.116Z,100.00
2023-01-03T17:51:04.718Z,100.00
2023-01-03T17:53:08.553Z,100.00
2023-01-03T17:55:25.710Z,100.00
2023-01-03T17:57:28.095Z,100.00
2023-01-03T17:59:29.712Z,100.00
2023-01-03T18:01:31.337Z,100.00
2023-01-03T18:03:32.961Z,100.00
2023-01-03T18:05:34.631Z,99.97
2023-01-03T18:07:36.193Z,100.00
2023-01-03T18:09:37.863Z,99.84
2023-01-03T18:11:39.330Z,100.00
2023-01-03T18:13:40.897Z,100.00
2023-01-03T18:15:42.388Z,100.00
2023-01-03T18:17:44.987Z,100.00
2023-01-03T18:19:46.437Z,100.00
2023-01-03T18:21:48.281Z,99.57
2023-01-03T18:24:02.503Z,99.46
2023-01-03T18:26:06.710Z,100.00
2023-01-03T18:28:10.333Z,99.81
2023-01-03T18:30:15.846Z,99.68
2023-01-03T18:32:23.247Z,99.90
2023-01-03T18:34:24.814Z,100.00
2023-01-03T18:36:29.165Z,99.77
2023-01-03T18:38:35.516Z,99.90
2023-01-03T18:40:38.079Z,99.69
2023-01-03T18:42:58.445Z,99.79
2023-01-03T18:44:59.963Z,99.50
2023-01-03T18:47:01.761Z,99.14
2023-01-03T18:49:03.283Z,99.28
2023-01-03T18:51:05.011Z,99.64
2023-01-03T18:53:06.546Z,99.24
2023-01-03T18:55:15.154Z,99.69
2023-01-03T18:57:16.633Z,99.16
2023-01-03T18:59:26.670Z,99.61
2023-01-03T19:01:28.322Z,99.66
2023-01-03T19:03:32.059Z,100.00
2023-01-03T19:05:33.637Z,99.72
2023-01-03T19:07:35.984Z,99.76
2023-01-03T19:09:37.579Z,98.90
2023-01-03T19:11:39.848Z,99.38
2023-01-03T19:13:54.512Z,99.61
2023-01-03T19:15:56.832Z,99.78
2023-01-03T19:17:58.428Z,99.05
2023-01-03T19:19:59.972Z,99.54
2023-01-03T19:22:01.908Z,100.00
2023-01-03T19:24:29.726Z,100.00
2023-01-03T19:26:39.923Z,100.00
2023-01-03T19:28:41.655Z,100.00
2023-01-03T19:30:46.464Z,100.00
2023-01-03T19:32:52.580Z,100.00
2023-01-03T19:34:54.230Z,100.00
2023-01-03T19:36:55.817Z,100.00
2023-01-03T19:38:57.365Z,100.00
2023-01-03T19:40:59.026Z,100.00
2023-01-03T19:43:00.767Z,100.00
2023-01-03T19:45:13.468Z,100.00
2023-01-03T19:47:18.190Z,100.00
2023-01-03T19:49:20.853Z,100.00
2023-01-03T19:51:22.310Z,100.00
2023-01-03T19:53:23.794Z,100.00
2023-01-03T19:55:29.138Z,100.00
2023-01-03T19:57:33.792Z,100.00
2023-01-03T19:59:38.199Z,99.61
2023-01-03T20:02:14.372Z,99.91
2023-01-03T20:04:02.370Z,99.73
2023-01-03T20:06:04.701Z,99.71
2023-01-03T20:08:12.022Z,99.61
2023-01-03T20:10:16.887Z,98.90
2023-01-03T20:12:26.839Z,98.68
2023-01-03T20:14:28.921Z,98.03
2023-01-03T20:16:30.437Z,98.17
2023-01-03T20:18:36.208Z,97.95
2023-01-03T20:20:38.130Z,97.86
2023-01-03T20:25:01.892Z,96.68
2023-01-03T20:27:03.756Z,97.21
2023-01-03T20:29:05.526Z,96.78
2023-01-03T20:31:08.372Z,96.16
2023-01-03T20:33:09.899Z,95.88
2023-01-03T20:36:06.590Z,95.48
2023-01-03T20:37:37.668Z,95.87
2023-01-03T20:39:39.163Z,94.96
2023-01-03T20:41:40.653Z,95.46
2023-01-03T20:43:43.381Z,95.25
2023-01-03T20:45:46.247Z,94.58
2023-01-03T20:47:54.251Z,94.58
2023-01-03T20:49:55.769Z,94.36
2023-01-03T20:51:57.343Z,94.17
2023-01-03T20:53:58.822Z,94.01
2023-01-03T20:56:00.285Z,94.15
2023-01-03T20:58:01.949Z,94.33
2023-01-03T21:00:05.138Z,94.45
2023-01-03T21:02:06.954Z,93.86
2023-01-03T21:04:08.642Z,93.73
2023-01-03T21:06:21.887Z,93.94
2023-01-03T21:08:41.649Z,93.84
2023-01-03T21:10:44.111Z,93.77
2023-01-03T21:12:45.680Z,93.10
2023-01-03T21:14:49.509Z,92.92
2023-01-03T21:16:51.151Z,93.11
2023-01-03T21:18:52.807Z,92.50
2023-01-03T21:20:54.318Z,92.95
2023-01-03T21:22:56.061Z,92.13
2023-01-03T21:24:58.016Z,92.37
2023-01-03T21:26:59.552Z,92.31
2023-01-03T21:29:01.132Z,92.21
2023-01-03T21:31:05.374Z,91.62
2023-01-03T21:33:15.966Z,91.84
2023-01-03T21:35:22.717Z,91.67
2023-01-03T21:37:24.229Z,90.93
2023-01-03T21:39:25.693Z,90.84
2023-01-03T21:41:30.030Z,91.01
2023-01-03T21:43:31.548Z,90.65
2023-01-03T21:45:38.156Z,89.97
2023-01-03T21:47:39.833Z,89.80
2023-01-03T21:49:41.338Z,89.16
2023-01-03T21:51:42.773Z,89.23
2023-01-03T21:53:44.494Z,89.20
2023-01-03T21:55:46.885Z,88.78
2023-01-03T21:57:48.537Z,88.89
2023-01-03T21:59:50.011Z,88.85
2023-01-03T22:02:09.893Z,88.46
2023-01-03T22:04:17.238Z,88.83
2023-01-03T22:06:18.751Z,88.30
2023-01-03T22:08:20.214Z,88.44
2023-01-03T22:10:23.721Z,87.99
2023-01-03T22:12:25.191Z,88.38
2023-01-03T22:14:26.686Z,88.45
2023-01-03T22:16:28.333Z,88.47
2023-01-03T22:18:29.831Z,88.32
2023-01-03T22:20:38.048Z,88.13
2023-01-03T22:22:40.452Z,88.07
2023-01-03T22:24:41.989Z,87.85
2023-01-03T22:26:43.455Z,88.27
2023-01-03T22:28:46.391Z,87.89
2023-01-03T22:30:47.829Z,87.68
2023-01-03T22:32:49.472Z,87.30
2023-01-03T22:34:50.991Z,87.37
2023-01-03T22:36:52.456Z,87.53
2023-01-03T22:38:53.948Z,87.26
2023-01-03T22:40:55.396Z,87.11
2023-01-03T22:42:56.862Z,87.64
2023-01-03T22:44:58.330Z,87.42
2023-01-03T22:46:59.872Z,87.65
2023-01-03T22:49:01.385Z,87.87
2023-01-03T22:51:04.798Z,88.06
2023-01-03T22:53:06.883Z,87.85
2023-01-03T22:55:08.590Z,88.00
2023-01-03T22:57:10.048Z,87.75
2023-01-03T22:59:11.596Z,87.78
2023-01-03T23:01:17.963Z,87.04
2023-01-03T23:03:19.519Z,87.56
2023-01-03T23:05:20.975Z,87.42
2023-01-03T23:07:22.435Z,87.60
2023-01-03T23:09:24.132Z,87.60
2023-01-03T23:11:46.153Z,87.38
2023-01-03T23:13:47.637Z,87.27
2023-01-03T23:15:49.312Z,86.94
2023-01-03T23:17:56.925Z,86.80
2023-01-03T23:19:58.414Z,86.58
2023-01-03T23:21:59.935Z,86.18
2023-01-03T23:24:01.583Z,86.28
2023-01-03T23:26:03.924Z,86.67
2023-01-03T23:28:05.438Z,86.01
2023-01-03T23:30:07.544Z,85.86
2023-01-03T23:32:09.018Z,86.25
2023-01-03T23:34:11.592Z,85.77
2023-01-03T23:36:14.201Z,85.57
2023-01-03T23:38:15.794Z,85.48
2023-01-03T23:40:17.424Z,85.54
2023-01-03T23:42:18.923Z,85.24
2023-01-03T23:44:20.409Z,85.34
2023-01-03T23:46:24.291Z,85.02
2023-01-03T23:48:25.790Z,85.30
2023-01-03T23:50:27.280Z,84.85
2023-01-03T23:52:28.721Z,84.50
2023-01-03T23:54:30.217Z,84.71
2023-01-03T23:56:31.708Z,84.96
2023-01-03T23:58:33.253Z,84.52
